Time;durP1;ratioP1;P1;durP2;ratioP2;P2;SDS_P1;SDS_P2;PMS_P1;PMS_P2;Temp;Humidity;BMP_temperature;BMP_pressure;BME280_temperature;BME280_humidity;BME280_pressure;Samples;Min_cycle;Max_cycle;Signal;HPM_P1;HPM_P2
2024/02/12 00:02:03;;;;;;;17.83;5.73;;;;;;;11.73;68.88;99290.88;122724;1102;104377;-76
2024/02/12 00:04:34;;;;;;;16.70;5.20;;;;;;;11.72;68.79;99291.77;122783;1105;104372;-77
2024/02/12 00:07:06;;;;;;;16.70;5.90;;;;;;;11.70;69.09;99296.10;122740;1102;104376;-77
2024/02/12 00:09:37;;;;;;;21.30;5.60;;;;;;;11.67;68.95;99296.97;123115;1102;104374;-76
2024/02/12 00:12:11;;;;;;;19.67;5.83;;;;;;;11.67;69.21;99290.81;122872;1102;104320;-76
2024/02/12 00:14:45;;;;;;;15.95;5.65;;;;;;;11.69;69.24;99292.60;123308;1102;104354;-77
2024/02/12 00:17:16;;;;;;;15.17;5.07;;;;;;;11.67;69.28;99291.72;123223;1102;104384;-76
2024/02/12 00:19:48;;;;;;;16.77;5.43;;;;;;;11.69;69.10;99292.60;122829;1102;104345;-77
2024/02/12 00:22:20;;;;;;;17.00;5.40;;;;;;;11.70;69.44;99280.33;122877;1102;104225;-76
2024/02/12 00:24:51;;;;;;;19.15;5.90;;;;;;;11.67;69.46;99280.30;122838;1102;104357;-76
2024/02/12 00:27:23;;;;;;;18.03;5.50;;;;;;;11.66;69.67;99275.93;122742;1102;104399;-76
2024/02/12 00:29:54;;;;;;;18.47;5.80;;;;;;;11.66;69.60;99262.80;122863;1102;104339;-76
2024/02/12 00:32:26;;;;;;;16.13;5.80;;;;;;;11.66;69.72;99268.91;123124;1102;104354;-77
2024/02/12 00:34:58;;;;;;;16.87;5.33;;;;;;;11.67;69.64;99264.53;123220;1102;104351;-77
2024/02/12 00:37:29;;;;;;;19.60;6.03;;;;;;;11.67;69.76;99262.81;123029;1102;104430;-76
2024/02/12 00:40:00;;;;;;;18.63;6.13;;;;;;;11.67;69.78;99256.65;122847;1102;105684;-76
2024/02/12 00:42:33;;;;;;;15.37;5.77;;;;;;;11.65;69.88;99258.39;122798;1102;104265;-77
2024/02/12 00:45:07;;;;;;;14.23;5.33;;;;;;;11.63;69.80;99257.50;122819;1101;104305;-76
2024/02/12 00:47:38;;;;;;;19.57;6.00;;;;;;;11.62;69.61;99255.72;122831;1102;104252;-76
2024/02/12 00:50:11;;;;;;;17.50;5.75;;;;;;;11.60;70.02;99262.72;123067;1102;104322;-76
2024/02/12 00:52:42;;;;;;;15.57;5.50;;;;;;;11.57;69.93;99263.55;122968;1102;104351;-76
2024/02/12 00:55:15;;;;;;;18.90;5.40;;;;;;;11.53;70.19;99261.77;123149;1102;104269;-76
2024/02/12 00:57:46;;;;;;;17.43;4.93;;;;;;;11.48;70.61;99261.72;122974;1105;104274;-76
2024/02/12 01:00:20;;;;;;;14.13;4.97;;;;;;;11.45;70.46;99263.41;122695;1101;104434;-78
2024/02/12 01:02:51;;;;;;;20.30;5.77;;;;;;;11.43;70.50;99252.01;122816;1102;104278;-76
2024/02/12 01:05:23;;;;;;;16.77;5.37;;;;;;;11.43;70.52;99249.38;122757;1102;104701;-77
2024/02/12 01:07:55;;;;;;;20.03;6.43;;;;;;;11.41;70.47;99254.61;122791;1102;104309;-76
2024/02/12 01:10:27;;;;;;;15.90;5.40;;;;;;;11.42;70.59;99247.61;123031;1102;104664;-76
2024/02/12 01:12:58;;;;;;;15.80;5.13;;;;;;;11.41;70.77;99254.61;122807;1102;104274;-76
2024/02/12 01:15:30;;;;;;;20.97;5.87;;;;;;;11.39;70.96;99242.31;123163;1102;104295;-76
2024/02/12 01:18:03;;;;;;;15.80;5.87;;;;;;;11.34;70.86;99242.25;123131;1102;104319;-76
2024/02/12 01:20:34;;;;;;;18.43;6.10;;;;;;;11.32;71.07;99233.48;122840;1102;104334;-76
2024/02/12 01:23:06;;;;;;;20.45;5.80;;;;;;;11.30;71.09;99243.97;123126;1102;104242;-76
2024/02/12 01:25:38;;;;;;;19.77;6.47;;;;;;;11.26;71.00;99236.03;123199;1102;104258;-76
2024/02/12 01:28:21;;;;;;;19.43;6.40;;;;;;;11.22;71.38;99236.84;122788;1102;104351;-76
2024/02/12 01:30:52;;;;;;;20.83;6.00;;;;;;;11.20;71.33;99230.70;122765;1102;104939;-76
2024/02/12 01:33:25;;;;;;;17.07;5.80;;;;;;;11.15;71.58;99223.64;122796;1102;104287;-76
2024/02/12 01:35:56;;;;;;;16.70;5.97;;;;;;;11.11;71.78;99227.11;122807;1102;104361;-76
2024/02/12 01:38:27;;;;;;;19.33;6.00;;;;;;;11.10;71.53;99229.71;122820;1105;104293;-76
2024/02/12 01:40:58;;;;;;;15.90;5.93;;;;;;;11.11;72.05;99219.23;123006;1102;104390;-76
2024/02/12 01:43:31;;;;;;;17.40;5.80;;;;;;;11.13;72.09;99220.12;123149;1101;104853;-77
2024/02/12 01:46:05;;;;;;;18.60;6.30;;;;;;;11.15;71.69;99220.14;123169;1102;104779;-77
2024/02/12 01:48:38;;;;;;;19.37;6.00;;;;;;;11.16;72.72;99224.55;123155;1101;104349;-76
2024/02/12 01:51:10;;;;;;;19.55;6.05;;;;;;;11.15;72.04;99223.64;122876;1102;104252;-77
2024/02/12 01:53:43;;;;;;;19.90;5.80;;;;;;;11.16;72.27;99227.17;122854;1102;104316;-76
2024/02/12 01:56:14;;;;;;;17.12;5.08;;;;;;;11.15;71.95;99223.64;122839;1102;104363;-77
2024/02/12 01:58:46;;;;;;;20.73;5.63;;;;;;;11.14;72.35;99227.15;122795;1105;104338;-77
2024/02/12 02:01:18;;;;;;;16.70;5.63;;;;;;;11.15;72.64;99231.52;123059;1102;104274;-78
2024/02/12 02:03:50;;;;;;;18.75;5.40;;;;;;;11.17;72.22;99230.66;122816;1102;104249;-77
2024/02/12 02:06:22;;;;;;;16.87;5.60;;;;;;;11.17;72.22;99239.41;122759;1102;104300;-76
2024/02/12 02:08:53;;;;;;;16.20;5.50;;;;;;;11.18;72.31;99233.31;122799;1102;104421;-77
2024/02/12 02:11:26;;;;;;;15.80;5.53;;;;;;;11.15;72.71;99234.14;122838;1102;104307;-77
2024/02/12 02:13:58;;;;;;;15.15;5.53;;;;;;;11.14;72.61;99237.65;122715;1102;104408;-76
2024/02/12 02:16:30;;;;;;;18.70;5.80;;;;;;;11.12;72.48;99238.48;122792;1102;104220;-77
2024/02/12 02:19:02;;;;;;;19.37;5.27;;;;;;;11.09;72.32;99234.06;122670;1102;104255;-77
2024/02/12 02:21:33;;;;;;;14.20;5.35;;;;;;;11.07;72.54;99238.42;122595;1102;104367;-76
2024/02/12 02:24:05;;;;;;;14.70;5.03;;;;;;;11.06;72.53;99239.27;122677;1102;104297;-76
2024/02/12 02:26:38;;;;;;;15.45;5.05;;;;;;;11.04;72.54;99230.50;122694;1102;104277;-76
2024/02/12 02:29:11;;;;;;;17.75;5.12;;;;;;;11.05;72.86;99227.03;122775;1102;104350;-76
2024/02/12 02:31:43;;;;;;;18.87;4.83;;;;;;;11.08;72.65;99226.16;122805;1102;104334;-76
2024/02/12 02:34:14;;;;;;;17.40;5.05;;;;;;;11.10;73.04;99224.47;122806;1102;104354;-77
2024/02/12 02:36:47;;;;;;;15.50;4.63;;;;;;;11.13;72.80;99220.12;122816;1102;104274;-77
2024/02/12 02:39:18;;;;;;;16.33;4.97;;;;;;;11.13;73.09;99217.50;122829;1102;104278;-77
2024/02/12 02:41:51;;;;;;;17.47;4.83;;;;;;;11.11;72.87;99220.95;122813;1102;104354;-76
2024/02/12 02:44:23;;;;;;;12.85;4.65;;;;;;;11.10;72.93;99221.84;123140;1101;104308;-76
2024/02/12 02:46:55;;;;;;;17.13;4.63;;;;;;;11.08;72.82;99216.56;123159;1102;104405;-77
2024/02/12 02:49:27;;;;;;;15.05;4.60;;;;;;;11.09;73.03;99218.31;123243;1102;104377;-76
2024/02/12 02:51:58;;;;;;;18.07;4.93;;;;;;;11.09;73.06;99226.19;122957;1102;104354;-77
2024/02/12 02:54:29;;;;;;;13.90;4.67;;;;;;;11.10;73.31;99235.83;122801;1102;104264;-76
2024/02/12 02:57:01;;;;;;;17.00;4.83;;;;;;;11.12;73.15;99238.48;122791;1102;104341;-77
2024/02/12 02:59:32;;;;;;;15.37;4.27;;;;;;;11.12;73.27;99239.35;122803;1102;104517;-77
2024/02/12 03:02:03;;;;;;;19.43;4.87;;;;;;;11.13;73.27;99235.88;122902;1102;104306;-76
2024/02/12 03:04:35;;;;;;;16.93;5.00;;;;;;;11.13;73.17;99224.50;123088;1102;104361;-77
2024/02/12 03:07:10;;;;;;;17.27;5.40;;;;;;;11.11;73.39;99219.23;123183;1102;104415;-77
2024/02/12 03:09:41;;;;;;;14.00;4.77;;;;;;;11.10;73.74;99212.20;123120;1102;104226;-77
2024/02/12 03:12:12;;;;;;;13.43;4.83;;;;;;;11.10;73.69;99199.08;122849;1102;104386;-78
2024/02/12 03:14:44;;;;;;;17.55;5.05;;;;;;;11.07;73.73;99214.80;122833;1102;104261;-77
2024/02/12 03:17:18;;;;;;;19.67;5.30;;;;;;;11.08;73.62;99221.81;122718;1102;104268;-77
2024/02/12 03:19:47;;;;;;;;;;;;;;;11.07;73.57;99225.30;122793;1102;104271;-77
2024/02/12 03:22:18;;;;;;;14.87;5.17;;;;;;;11.08;73.62;99218.28;122923;1102;104338;-76
2024/02/12 03:24:50;;;;;;;17.03;4.70;;;;;;;11.11;73.76;99221.86;123081;1102;104351;-76
2024/02/12 03:27:22;;;;;;;14.30;4.80;;;;;;;11.11;73.91;99221.86;122771;1105;104449;-76
2024/02/12 03:29:53;;;;;;;14.13;4.63;;;;;;;11.14;73.63;99220.99;123122;1102;104272;-76
2024/02/12 03:32:24;;;;;;;17.27;5.33;;;;;;;11.13;73.64;99216.63;123102;1102;104232;-76
2024/02/12 03:34:57;;;;;;;15.35;5.10;;;;;;;11.13;73.62;99209.63;122723;1102;104281;-76
2024/02/12 03:37:28;;;;;;;18.63;5.00;;;;;;;11.11;73.96;99208.73;122885;1102;104421;-76
2024/02/12 03:39:59;;;;;;;17.27;5.23;;;;;;;11.11;74.00;99211.36;122765;1102;104367;-77
2024/02/12 03:42:31;;;;;;;17.03;6.03;;;;;;;11.10;73.88;99209.58;122727;1101;104229;-76
2024/02/12 03:45:05;;;;;;;18.40;6.90;;;;;;;11.08;73.84;99206.06;122791;1102;104355;-76
2024/02/12 03:47:39;;;;;;;19.67;6.62;;;;;;;11.04;73.91;99211.25;122758;1102;104320;-77
2024/02/12 04:01:40;;;;;;;24.33;6.33;;;;;;;10.75;73.96;99202.13;122812;1102;104293;-76
2024/02/12 04:04:12;;;;;;;21.37;6.30;;;;;;;10.69;74.14;99203.77;123109;1102;104345;-75
2024/02/12 04:06:43;;;;;;;20.40;6.63;;;;;;;10.63;74.29;99204.58;123115;1102;104347;-77
2024/02/12 04:09:14;;;;;;;20.40;6.37;;;;;;;10.58;74.42;99207.13;123027;1102;104242;-76
2024/02/12 04:11:46;;;;;;;20.03;5.53;;;;;;;10.59;74.57;99210.63;123209;1102;104351;-76
2024/02/12 04:14:17;;;;;;;20.20;6.35;;;;;;;10.56;74.66;99208.83;122739;1102;105498;-76
2024/02/12 04:16:51;;;;;;;22.60;6.20;;;;;;;10.53;74.67;99206.19;122729;1102;104370;-77
2024/02/12 04:19:22;;;;;;;17.92;6.17;;;;;;;10.52;74.80;99199.16;122820;1102;104252;-76
2024/02/12 04:21:54;;;;;;;18.27;6.17;;;;;;;10.53;75.58;99203.56;122784;1102;104290;-76
2024/02/12 04:24:28;;;;;;;22.87;6.80;;;;;;;10.50;75.52;99206.14;122741;1102;104360;-77
2024/02/12 04:26:59;;;;;;;19.17;6.70;;;;;;;10.50;75.30;99206.14;122811;1102;104543;-77
2024/02/12 04:29:30;;;;;;;14.95;5.80;;;;;;;10.49;75.49;99209.61;123116;1102;104252;-77
2024/02/12 04:32:03;;;;;;;23.93;6.40;;;;;;;10.47;75.61;99198.23;123165;1102;104357;-76
2024/02/12 04:34:34;;;;;;;18.27;5.73;;;;;;;10.47;75.50;99199.94;122840;1102;104287;-76
2024/02/12 04:37:08;;;;;;;20.80;6.30;;;;;;;10.48;75.70;99201.72;122790;1102;104287;-76
2024/02/12 04:39:38;;;;;;;;;;;;;;;10.47;75.85;99210.44;123264;1102;104287;-76
2024/02/12 04:42:09;;;;;;;25.10;5.87;;;;;;;10.45;75.25;99212.16;123084;1102;104340;-77
2024/02/12 04:44:41;;;;;;;19.13;5.80;;;;;;;10.47;75.53;99210.44;122776;1102;104318;-76
2024/02/12 04:47:12;;;;;;;21.83;6.40;;;;;;;10.45;75.65;99209.54;122824;1102;104277;-77
2024/02/12 04:49:43;;;;;;;19.83;6.23;;;;;;;10.45;75.84;99206.92;122744;1102;104647;-76
2024/02/12 04:52:16;;;;;;;21.65;6.60;;;;;;;10.45;75.67;99207.79;122771;1105;104378;-77
2024/02/12 04:54:47;;;;;;;18.97;6.00;;;;;;;10.47;75.94;99207.81;123067;1102;104271;-77
2024/02/12 04:57:18;;;;;;;20.00;5.90;;;;;;;10.45;75.85;99217.41;123064;1102;104278;-76
2024/02/12 04:59:52;;;;;;;24.20;6.80;;;;;;;10.43;75.75;99220.88;123071;1102;104245;-76
2024/02/12 05:02:26;;;;;;;21.90;6.60;;;;;;;10.41;76.24;99212.11;122806;1102;104229;-77
2024/02/12 05:04:57;;;;;;;19.95;7.10;;;;;;;10.39;76.19;99220.80;122705;1102;104281;-76
2024/02/12 05:07:31;;;;;;;20.60;7.50;;;;;;;10.35;76.12;99221.63;122753;1102;104300;-76
2024/02/12 05:10:02;;;;;;;17.85;6.53;;;;;;;10.30;76.27;99221.52;122840;1102;104329;-77
2024/02/12 05:12:33;;;;;;;24.70;7.33;;;;;;;10.28;76.08;99225.84;122969;1105;104408;-76
2024/02/12 05:15:06;;;;;;;23.67;7.37;;;;;;;10.28;76.29;99225.84;123238;1102;104329;-75
2024/02/12 05:17:52;;;;;;;21.87;7.33;;;;;;;10.25;76.44;99229.31;123068;1102;104380;-76
2024/02/12 05:23:12;;;;;;;23.30;8.07;;;;;;;10.21;76.89;99234.48;122934;1102;104248;-77
2024/02/12 05:25:44;;;;;;;22.53;8.70;;;;;;;10.20;76.64;99244.06;123018;1102;104224;-77
2024/02/12 05:28:15;;;;;;;27.50;8.80;;;;;;;10.22;76.92;99237.13;123451;1102;104328;-76
2024/02/12 05:30:47;;;;;;;20.80;8.23;;;;;;;10.24;76.72;99234.53;122922;1102;104307;-77
2024/02/12 05:33:18;;;;;;;24.27;8.60;;;;;;;10.25;76.79;99228.41;122880;1102;104568;-77
2024/02/12 05:35:49;;;;;;;25.33;8.13;;;;;;;10.26;76.89;99241.54;123359;1102;104736;-77
2024/02/12 05:38:20;;;;;;;20.80;8.57;;;;;;;10.30;76.87;99231.11;123231;1102;104757;-77
2024/02/12 05:40:51;;;;;;;25.13;7.80;;;;;;;10.34;76.98;99230.34;123387;1102;104218;-76
2024/02/12 05:43:22;;;;;;;22.53;8.43;;;;;;;10.37;76.86;99236.51;123377;1102;104278;-76
2024/02/12 05:45:54;;;;;;;20.57;7.73;;;;;;;10.42;77.10;99228.72;123266;1102;104458;-77
2024/02/12 05:48:26;;;;;;;23.10;8.03;;;;;;;10.48;76.97;99227.95;123338;1102;104679;-77
2024/02/12 05:50:58;;;;;;;25.53;7.40;;;;;;;10.53;77.43;99229.80;123409;1102;104252;-76
2024/02/12 05:53:30;;;;;;;22.87;6.87;;;;;;;10.59;77.18;99231.61;123326;1102;104693;-76
2024/02/12 05:56:01;;;;;;;22.73;6.93;;;;;;;10.63;77.21;99228.19;123379;1102;104378;-76
2024/02/12 05:58:32;;;;;;;23.50;7.10;;;;;;;10.71;77.63;99228.30;123312;1102;104262;-76
2024/02/12 06:01:03;;;;;;;21.80;6.97;;;;;;;10.82;77.59;99231.95;123927;1102;104245;-78
2024/02/12 06:03:35;;;;;;;24.10;6.97;;;;;;;10.90;77.69;99232.94;123644;1102;104297;-76
2024/02/12 06:06:06;;;;;;;21.13;6.63;;;;;;;10.99;77.68;99240.06;123325;1102;104274;-77
2024/02/12 06:08:37;;;;;;;20.37;6.10;;;;;;;11.09;78.31;99244.56;123391;1102;104240;-76
2024/02/12 06:11:09;;;;;;;23.53;6.50;;;;;;;11.17;77.97;99246.42;123353;1102;104251;-76
2024/02/12 06:13:40;;;;;;;20.80;6.50;;;;;;;11.26;77.80;99243.91;123314;1102;104427;-77
2024/02/12 06:16:12;;;;;;;21.53;6.00;;;;;;;11.36;78.04;99245.80;123679;1102;104246;-75
2024/02/12 06:18:44;;;;;;;23.63;6.87;;;;;;;11.45;78.00;99243.30;123868;1102;104210;-76
2024/02/12 06:21:15;;;;;;;23.23;6.13;;;;;;;11.55;77.84;99238.15;123849;1102;104348;-76
2024/02/12 06:23:46;;;;;;;20.63;5.70;;;;;;;11.64;77.84;99241.75;123578;1102;104431;-76
2024/02/12 06:26:20;;;;;;;25.33;6.37;;;;;;;11.73;77.95;99238.33;123522;1102;104293;-77
2024/02/12 06:28:51;;;;;;;26.17;6.10;;;;;;;11.79;78.05;99235.77;123606;1102;104178;-77
2024/02/12 06:31:23;;;;;;;24.90;6.83;;;;;;;11.85;78.09;99235.83;123913;1102;104169;-77
2024/02/12 06:33:55;;;;;;;23.35;6.85;;;;;;;11.90;78.13;99233.25;123796;1102;104252;-78
2024/02/12 06:36:26;;;;;;;23.57;7.10;;;;;;;11.93;77.87;99237.70;123945;1102;104440;-77
2024/02/12 06:38:57;;;;;;;20.13;5.97;;;;;;;11.99;77.94;99237.76;123831;1102;101774;-77
2024/02/12 06:41:33;;;;;;;24.43;7.27;;;;;;;12.05;78.08;99233.43;123552;1102;104727;-77
2024/02/12 06:44:09;;;;;;;20.63;6.40;;;;;;;12.10;78.10;99230.84;123659;1102;104310;-77
2024/02/12 06:46:44;;;;;;;21.60;7.17;;;;;;;12.16;77.94;99232.66;123695;1102;104203;-77
2024/02/12 06:49:17;;;;;;;22.33;7.17;;;;;;;12.24;77.95;99230.97;124496;1105;104360;-75
2024/02/12 06:51:48;;;;;;;22.60;8.25;;;;;;;12.28;78.00;99237.13;123809;1102;104300;-74
2024/02/12 06:54:20;;;;;;;23.27;6.50;;;;;;;12.33;77.81;99236.31;123844;1102;104240;-76
2024/02/12 06:56:51;;;;;;;24.10;6.47;;;;;;;12.38;78.32;99224.06;123562;1102;104274;-77
2024/02/12 06:59:22;;;;;;;20.40;6.07;;;;;;;12.47;78.49;99228.53;124007;1102;104246;-78
2024/02/12 07:01:53;;;;;;;18.80;6.00;;;;;;;12.52;78.06;99218.05;123786;1102;104214;-76
2024/02/12 07:04:24;;;;;;;19.50;6.03;;;;;;;12.58;78.24;99213.70;123930;1102;104235;-76
2024/02/12 07:06:56;;;;;;;19.40;5.33;;;;;;;12.67;78.42;99217.25;124042;1101;104233;-76
2024/02/12 07:09:27;;;;;;;19.43;5.40;;;;;;;12.75;77.82;99221.70;123956;1102;104252;-77
2024/02/12 07:12:00;;;;;;;20.83;5.30;;;;;;;12.80;77.81;99216.47;123927;1102;103072;-77
2024/02/12 07:14:31;;;;;;;17.70;5.25;;;;;;;12.88;77.70;99213.88;124689;1101;104351;-77
2024/02/12 07:17:02;;;;;;;14.23;5.07;;;;;;;12.96;78.04;99217.44;123740;1102;104226;-77
2024/02/12 07:19:35;;;;;;;19.37;5.13;;;;;;;13.06;78.56;99223.66;123746;1102;104246;-77
2024/02/12 07:22:09;;;;;;;16.67;5.03;;;;;;;13.14;78.35;99227.20;123750;1102;104326;-77
2024/02/12 07:24:40;;;;;;;17.23;5.20;;;;;;;13.21;78.11;99230.73;123792;1102;104175;-77
2024/02/12 07:27:12;;;;;;;16.97;5.40;;;;;;;13.30;78.67;99225.50;123687;1105;104399;-77
2024/02/12 07:29:44;;;;;;;21.20;5.43;;;;;;;13.41;77.91;99236.13;123904;1102;104695;-77
2024/02/12 07:32:17;;;;;;;21.17;5.77;;;;;;;13.51;77.79;99234.39;124041;1102;104242;-77
2024/02/12 07:34:57;;;;;;;18.30;5.57;;;;;;;13.57;77.80;99231.78;124352;1102;104249;-77
2024/02/12 07:37:34;;;;;;;20.77;5.75;;;;;;;13.62;77.54;99238.84;125933;1102;102397;-77
2024/02/12 07:40:10;;;;;;;21.65;5.75;;;;;;;13.72;77.36;99217.78;124411;1102;104347;-77
2024/02/12 07:42:42;;;;;;;21.33;5.60;;;;;;;13.78;78.12;99234.48;124440;1102;104197;-75
2024/02/12 07:45:13;;;;;;;23.23;5.60;;;;;;;13.82;77.54;99224.81;125056;1101;104185;-80
2024/02/12 07:47:48;;;;;;;24.13;6.67;;;;;;;13.91;77.50;99226.59;124642;1103;104188;-80
2024/02/12 07:50:21;;;;;;;21.05;5.15;;;;;;;13.99;77.06;99220.47;124752;1105;104300;-78
2024/02/12 07:55:50;;;;;;;15.10;4.50;;;;;;;14.26;77.46;99225.74;124676;1102;103573;-79
2024/02/12 07:58:24;;;;;;;18.93;5.57;;;;;;;14.33;76.59;99224.88;124545;1103;104248;-78
2024/02/12 08:00:57;;;;;;;19.07;4.77;;;;;;;14.42;76.94;99224.01;124582;1105;104236;-80
2024/02/12 08:03:29;;;;;;;21.40;4.87;;;;;;;14.52;76.98;99220.46;124744;1105;102722;-81
2024/02/12 08:06:05;;;;;;;16.90;4.93;;;;;;;14.61;76.03;99225.77;124684;1104;102962;-78
2024/02/12 08:08:41;;;;;;;19.55;5.65;;;;;;;14.71;75.90;99238.09;124223;1104;104255;-80
2024/02/12 08:11:13;;;;;;;18.40;4.93;;;;;;;14.80;75.50;99238.95;124411;1102;102491;-79
2024/02/12 08:13:46;;;;;;;15.10;4.47;;;;;;;14.86;75.29;99233.66;124832;1102;104280;-79
2024/02/12 08:16:25;;;;;;;22.47;5.20;;;;;;;14.92;74.97;99237.16;124556;1102;102967;-80
2024/02/12 08:18:57;;;;;;;16.60;4.80;;;;;;;14.98;74.94;99235.41;124312;1102;104354;-78
2024/02/12 08:21:31;;;;;;;20.03;4.63;;;;;;;15.06;74.75;99229.20;124943;1105;104283;-81
2024/02/12 08:24:01;;;;;;;;;;;;;;;15.14;74.45;99241.52;124303;1103;104261;-80
2024/02/12 08:26:32;;;;;;;19.43;5.03;;;;;;;15.21;74.82;99222.13;125133;1105;104256;-81
2024/02/12 08:29:04;;;;;;;20.27;4.50;;;;;;;15.28;74.44;99237.06;124519;1102;104247;-79
2024/02/12 08:31:56;;;;;;;18.80;4.90;;;;;;;15.34;72.49;99230.88;125095;1105;102546;-79
2024/02/12 08:34:27;;;;;;;20.33;5.63;;;;;;;15.39;73.44;99235.24;124311;1105;104383;-77
2024/02/12 08:36:59;;;;;;;18.03;4.33;;;;;;;15.48;72.44;99251.97;124290;1102;104214;-79
2024/02/12 08:39:31;;;;;;;17.17;4.40;;;;;;;15.50;73.66;99224.63;123985;1105;104347;-80
2024/02/12 08:42:06;;;;;;;18.17;4.70;;;;;;;15.70;73.07;99234.23;124344;1105;104258;-78
2024/02/12 08:44:37;;;;;;;15.87;4.70;;;;;;;15.80;72.39;99233.34;123923;1105;104242;-79
2024/02/12 08:47:09;;;;;;;21.37;5.27;;;;;;;15.93;71.79;99215.63;124132;1105;104057;-80
2024/02/12 08:49:41;;;;;;;15.87;4.53;;;;;;;16.07;71.58;99221.69;124231;1105;104188;-78
2024/02/12 08:52:14;;;;;;;17.47;4.60;;;;;;;16.19;71.55;99215.44;124215;1102;102112;-81
2024/02/12 08:54:46;;;;;;;16.23;4.47;;;;;;;16.33;71.60;99228.53;124320;1102;104195;-81
2024/02/12 08:57:19;;;;;;;17.13;4.60;;;;;;;16.37;70.44;99226.77;124391;1102;104211;-81
2024/02/12 08:59:53;;;;;;;15.33;4.20;;;;;;;16.41;70.77;99223.18;124153;1106;104304;-79
2024/02/12 09:02:28;;;;;;;18.07;4.40;;;;;;;16.43;70.41;99227.58;125179;1105;104216;-82
2024/02/12 09:08:38;;;;;;;19.43;4.70;;;;;;;16.48;69.55;99233.70;125120;1105;104263;-81
2024/02/12 09:11:09;;;;;;;17.75;4.60;;;;;;;16.56;68.96;99227.48;125066;1102;102247;-81
2024/02/12 09:13:42;;;;;;;19.53;5.00;;;;;;;16.57;67.84;99234.55;124155;1105;104207;-80
2024/02/12 09:16:47;;;;;;;18.50;4.43;;;;;;;16.58;68.05;99244.22;124900;1102;104200;-79
2024/02/12 09:19:25;;;;;;;17.47;4.60;;;;;;;16.54;67.78;99244.25;124786;1105;102446;-80
2024/02/12 09:21:58;;;;;;;16.50;4.13;;;;;;;16.55;67.83;99237.20;125113;1102;102891;-80
2024/02/12 09:24:36;;;;;;;18.45;4.62;;;;;;;16.60;68.03;99232.73;124246;1105;103580;-82
2024/02/12 09:27:12;;;;;;;14.07;4.03;;;;;;;16.63;68.15;99235.35;124395;1103;103180;-79
2024/02/12 09:29:47;;;;;;;14.33;4.47;;;;;;;16.67;67.91;99234.45;124272;1102;104223;-80
2024/02/12 09:32:21;;;;;;;16.70;4.33;;;;;;;16.79;67.54;99240.51;124203;1105;104280;-80
2024/02/12 09:34:55;;;;;;;15.65;4.22;;;;;;;16.93;67.63;99235.97;124499;1105;104759;-81
2024/02/12 09:37:32;;;;;;;18.87;4.80;;;;;;;17.11;67.64;99229.61;125460;1105;104270;-81
2024/02/12 09:40:07;;;;;;;17.37;4.70;;;;;;;17.22;67.62;99222.41;125117;1105;104198;-83
2024/02/12 09:42:41;;;;;;;17.10;4.63;;;;;;;17.18;66.54;99225.98;124422;1102;111607;-81
2024/02/12 09:45:17;;;;;;;17.87;4.57;;;;;;;17.10;66.56;99217.24;125373;1102;104182;-80
2024/02/12 09:47:52;;;;;;;17.63;4.40;;;;;;;17.07;66.45;99209.33;125959;1105;102867;-81
2024/02/12 09:50:25;;;;;;;17.30;4.27;;;;;;;17.02;66.00;99205.86;126005;1102;103223;-81
2024/02/12 09:52:58;;;;;;;14.00;4.00;;;;;;;17.03;65.89;99199.64;124415;1102;104211;-80
2024/02/12 09:55:33;;;;;;;15.53;4.50;;;;;;;17.04;66.42;99198.77;124151;1105;102981;-81
2024/02/12 09:58:07;;;;;;;14.47;4.20;;;;;;;17.11;66.03;99202.20;124197;1105;102481;-81
2024/02/12 10:00:37;;;;;;;;;;;;;;;17.25;64.63;99200.30;124126;1105;104627;-79
2024/02/12 10:03:11;;;;;;;15.57;4.30;;;;;;;17.38;65.90;99195.70;124255;1105;107047;-81
2024/02/12 10:05:44;;;;;;;14.33;3.87;;;;;;;17.49;66.08;99198.22;124325;1105;103635;-81
2024/02/12 10:08:23;;;;;;;14.67;4.17;;;;;;;17.52;65.05;99190.23;124107;1102;104235;-81
2024/02/12 10:10:56;;;;;;;14.27;4.40;;;;;;;17.56;64.76;99183.95;124498;1102;104194;-80
2024/02/12 10:13:27;;;;;;;18.10;4.27;;;;;;;17.59;64.59;99183.92;124542;1105;117796;-81
2024/02/12 10:15:59;;;;;;;17.15;4.10;;;;;;;17.61;63.12;99172.40;124451;1105;104453;-80
2024/02/12 10:18:31;;;;;;;15.60;3.90;;;;;;;17.60;63.65;99175.94;124351;1105;104171;-81
2024/02/12 10:21:04;;;;;;;11.13;3.60;;;;;;;17.63;62.79;99179.47;124203;1105;104182;-80
2024/02/12 10:23:35;;;;;;;12.33;3.43;;;;;;;17.68;63.12;99167.01;124190;1102;104198;-81
2024/02/12 10:26:08;;;;;;;16.63;4.20;;;;;;;17.73;62.49;99174.02;124260;1103;104313;-81
2024/02/12 10:28:39;;;;;;;15.40;3.80;;;;;;;17.72;62.46;99155.47;124296;1102;104169;-81
2024/02/12 10:31:11;;;;;;;14.90;3.73;;;;;;;17.66;62.02;99161.72;124353;1102;104306;-80
2024/02/12 10:33:44;;;;;;;16.30;4.00;;;;;;;17.59;62.84;99160.05;124529;1105;111168;-80
2024/02/12 10:36:36;;;;;;;14.90;4.30;;;;;;;17.46;62.80;99150.53;124323;1105;102754;-82
2024/02/12 10:39:16;;;;;;;12.00;3.60;;;;;;;17.50;62.68;99147.81;124699;1106;104319;-81
2024/02/12 10:41:52;;;;;;;13.27;4.30;;;;;;;17.50;62.35;99137.20;125129;1105;102582;-80
2024/02/12 10:44:28;;;;;;;13.27;3.60;;;;;;;17.63;62.89;99152.95;124408;1105;104307;-81
2024/02/12 10:47:01;;;;;;;12.73;4.07;;;;;;;17.71;62.55;99145.74;125080;1102;102391;-81
2024/02/12 10:49:34;;;;;;;13.85;3.92;;;;;;;17.81;62.69;99134.10;125027;1102;102421;-82
2024/02/12 10:52:09;;;;;;;18.00;4.30;;;;;;;17.92;62.92;99124.22;124390;1102;104242;-80
2024/02/12 10:54:42;;;;;;;11.33;3.87;;;;;;;17.99;61.53;99109.06;124310;1105;104262;-81
2024/02/12 10:57:14;;;;;;;14.33;4.37;;;;;;;18.01;61.62;99133.78;124487;1106;104179;-81
2024/02/12 10:59:46;;;;;;;18.87;3.83;;;;;;;18.08;61.77;99131.93;124625;1105;104179;-82
2024/02/12 11:02:19;;;;;;;11.73;4.07;;;;;;;18.12;61.28;99118.58;124604;1105;104297;-81
2024/02/12 11:05:02;;;;;;;14.13;3.80;;;;;;;18.18;61.39;99114.92;125882;1105;101949;-80
2024/02/12 11:07:35;;;;;;;14.63;3.90;;;;;;;18.19;61.20;99116.69;125178;1105;104224;-81
2024/02/12 11:10:10;;;;;;;13.53;3.60;;;;;;;18.17;61.13;99109.64;124641;1105;103578;-81
2024/02/12 11:12:46;;;;;;;13.50;3.83;;;;;;;18.17;60.67;99115.84;124510;1106;104181;-79
2024/02/12 11:15:28;;;;;;;13.27;4.00;;;;;;;18.18;60.55;99099.00;124628;1102;104238;-81
2024/02/12 11:18:12;;;;;;;11.53;3.70;;;;;;;18.13;60.97;99104.38;124829;1105;104175;-81
2024/02/12 11:20:57;;;;;;;15.87;4.03;;;;;;;18.06;60.01;99101.86;125080;1105;103534;-81
2024/02/12 11:23:30;;;;;;;14.43;3.80;;;;;;;18.08;60.35;99100.95;125285;1105;102503;-79
2024/02/12 11:26:05;;;;;;;12.50;3.90;;;;;;;18.10;59.72;99096.47;124385;1102;104181;-81
2024/02/12 11:28:39;;;;;;;14.17;3.70;;;;;;;18.17;60.17;99091.95;124555;1105;102055;-82
2024/02/12 11:31:17;;;;;;;15.35;4.25;;;;;;;18.22;59.34;99087.43;124371;1102;102145;-81
2024/02/12 11:33:50;;;;;;;10.63;3.60;;;;;;;18.25;59.11;99073.23;124387;1105;102853;-81
2024/02/12 11:36:23;;;;;;;11.65;3.95;;;;;;;18.27;58.70;99085.55;124378;1105;104165;-80
2024/02/12 11:39:00;;;;;;;15.67;3.83;;;;;;;18.30;59.01;99085.50;124217;1105;104207;-81
2024/02/12 11:41:32;;;;;;;11.53;3.70;;;;;;;18.39;58.93;99086.26;124384;1105;102313;-81
2024/02/12 11:44:06;;;;;;;11.40;3.50;;;;;;;18.41;58.54;99081.78;124344;1102;104349;-82
2024/02/12 11:46:40;;;;;;;14.50;4.13;;;;;;;18.40;59.08;99077.36;124365;1102;104421;-81
2024/02/12 11:49:13;;;;;;;15.83;3.67;;;;;;;18.44;58.78;99073.76;126260;1102;101936;-82
2024/02/12 11:51:49;;;;;;;11.07;3.60;;;;;;;18.46;58.44;99066.62;126347;1102;101879;-80
2024/02/12 11:54:24;;;;;;;14.27;3.53;;;;;;;18.45;58.59;99056.89;125724;1102;102855;-81
2024/02/12 11:56:58;;;;;;;14.17;4.20;;;;;;;18.39;58.22;99049.08;125590;1102;104185;-82